sim
Sign-in with your pilot id or email,
or register
Callsign
Passwort

Schedule Details

Flight Number: OEO6709
Departure: Cape Town International Airport (FACT) at 04:25
Arrival: Munich Airport (EDDM) at 16:35

Weather Information
Getting current METAR information for FACT 291700Z 18015KT 9999 FEW035 14/06 Q1025 NOSIG
Getting current METAR information for EDDM 291720Z 26006KT 9999 SCT017 BKN030 11/09 Q1019 NOSIG

Schedule Frequency

Route Map